createdAt,value
2018-06-05T00:01:31.898Z,29.40
2018-06-05T00:04:06.900Z,30.93
2018-06-05T00:06:43.094Z,30.37
2018-06-05T00:09:19.806Z,29.70
2018-06-05T00:11:55.302Z,29.67
2018-06-05T00:14:30.838Z,28.87
2018-06-05T00:17:06.179Z,30.20
2018-06-05T00:19:41.119Z,30.60
2018-06-05T00:22:15.809Z,29.67
2018-06-05T00:24:51.298Z,29.83
2018-06-05T00:27:26.808Z,29.80
2018-06-05T00:30:02.750Z,31.33
2018-06-05T00:32:37.930Z,31.57
2018-06-05T00:35:12.305Z,32.67
2018-06-05T00:37:47.530Z,33.17
2018-06-05T00:40:23.682Z,32.43
2018-06-05T00:42:58.920Z,32.30
2018-06-05T00:45:35.822Z,33.57
2018-06-05T00:48:11.874Z,30.87
2018-06-05T00:50:48.134Z,32.93
2018-06-05T00:53:24.219Z,33.67
2018-06-05T00:56:01.147Z,34.23
2018-06-05T00:58:37.494Z,30.90
2018-06-05T01:01:12.956Z,31.00
2018-06-05T01:03:48.817Z,30.67
2018-06-05T01:06:25.022Z,32.30
2018-06-05T01:09:00.475Z,28.97
2018-06-05T01:11:36.327Z,28.57
2018-06-05T01:14:11.000Z,26.90
2018-06-05T01:16:46.766Z,27.37
2018-06-05T01:19:22.313Z,28.53
2018-06-05T01:21:59.126Z,26.83
2018-06-05T01:24:35.542Z,26.70
2018-06-05T01:27:13.966Z,26.83
2018-06-05T01:29:49.771Z,27.00
2018-06-05T01:32:25.153Z,26.83
2018-06-05T01:35:00.459Z,27.80
2018-06-05T01:37:35.260Z,27.67
2018-06-05T01:40:11.087Z,27.77
2018-06-05T01:42:47.142Z,30.87
2018-06-05T01:45:22.875Z,29.70
2018-06-05T01:47:59.879Z,28.10
2018-06-05T01:50:35.147Z,25.73
2018-06-05T01:53:11.330Z,28.60
2018-06-05T01:55:46.224Z,27.90
2018-06-05T01:58:22.874Z,27.50
2018-06-05T02:00:58.082Z,29.13
2018-06-05T02:03:32.826Z,29.33
2018-06-05T02:06:07.658Z,27.47
2018-06-05T02:08:43.986Z,34.10
2018-06-05T02:11:19.022Z,32.23
2018-06-05T02:13:53.794Z,34.77
2018-06-05T02:16:29.082Z,37.20
2018-06-05T02:19:03.770Z,34.30
2018-06-05T02:21:39.154Z,34.73
2018-06-05T02:24:15.804Z,31.70
2018-06-05T02:26:52.007Z,32.17
2018-06-05T02:29:28.017Z,30.20
2018-06-05T02:32:02.803Z,32.93
2018-06-05T02:34:37.924Z,32.60
2018-06-05T02:37:14.230Z,33.63
2018-06-05T02:39:49.851Z,29.23
2018-06-05T02:42:25.235Z,31.83
2018-06-05T02:45:01.062Z,32.70
2018-06-05T02:47:36.072Z,37.00
2018-06-05T02:50:11.663Z,31.27
2018-06-05T02:52:47.224Z,36.30
2018-06-05T02:55:23.030Z,32.03
2018-06-05T02:57:58.763Z,35.00
2018-06-05T03:00:34.322Z,32.47
2018-06-05T03:03:09.244Z,36.47
2018-06-05T03:05:44.702Z,43.97
2018-06-05T03:08:20.576Z,40.07
2018-06-05T03:10:56.102Z,37.20
2018-06-05T03:13:31.947Z,35.23
2018-06-05T03:16:06.990Z,39.50
2018-06-05T03:18:42.718Z,38.13
2018-06-05T03:21:17.777Z,40.87
2018-06-05T03:23:54.222Z,38.73
2018-06-05T03:26:29.974Z,41.07
2018-06-05T03:29:04.742Z,45.07
2018-06-05T03:31:41.026Z,36.23
2018-06-05T03:34:17.154Z,39.93
2018-06-05T03:36:52.173Z,40.90
2018-06-05T03:39:27.194Z,36.93
2018-06-05T03:42:02.978Z,41.63
2018-06-05T03:44:38.115Z,36.33
2018-06-05T03:47:14.142Z,34.60
2018-06-05T03:49:49.245Z,33.67
2018-06-05T03:52:25.050Z,34.70
2018-06-05T03:55:01.049Z,34.70
2018-06-05T03:57:37.482Z,32.60
2018-06-05T04:00:13.036Z,34.30
2018-06-05T04:02:47.933Z,33.40
2018-06-05T04:05:23.222Z,33.20
2018-06-05T04:07:58.668Z,37.97
2018-06-05T04:10:34.643Z,34.47
2018-06-05T04:13:10.510Z,37.63
2018-06-05T04:15:46.805Z,36.33
2018-06-05T04:18:22.581Z,41.67
2018-06-05T04:20:58.549Z,39.47
2018-06-05T04:23:33.994Z,37.50
2018-06-05T04:26:10.148Z,34.23
2018-06-05T04:28:46.347Z,35.50
2018-06-05T04:31:22.146Z,34.70
2018-06-05T04:33:57.043Z,33.93
2018-06-05T04:36:33.974Z,36.77
2018-06-05T04:39:09.136Z,36.40
2018-06-05T04:41:43.822Z,34.50
2018-06-05T04:44:19.866Z,34.60
2018-06-05T04:46:55.290Z,35.70
2018-06-05T04:49:30.774Z,35.63
2018-06-05T04:52:05.878Z,35.60
2018-06-05T04:54:41.951Z,35.80
2018-06-05T04:57:17.693Z,35.33
2018-06-05T04:59:53.450Z,34.33
2018-06-05T05:02:27.892Z,34.43
2018-06-05T05:05:04.027Z,33.60
2018-06-05T05:07:39.179Z,35.27
2018-06-05T05:10:14.668Z,34.27
2018-06-05T05:12:50.104Z,37.43
2018-06-05T05:15:25.610Z,40.87
2018-06-05T05:18:01.360Z,42.10
2018-06-05T05:20:36.002Z,42.27
2018-06-05T05:23:12.050Z,42.13
2018-06-05T05:25:47.305Z,41.50
2018-06-05T05:28:22.878Z,44.07
2018-06-05T05:30:58.211Z,42.23
2018-06-05T05:33:33.441Z,41.53
2018-06-05T05:36:08.034Z,38.37
2018-06-05T05:38:43.436Z,35.50
2018-06-05T05:41:17.939Z,39.93
2018-06-05T05:43:53.778Z,40.50
2018-06-05T05:46:29.855Z,33.83
2018-06-05T05:49:05.481Z,40.57
2018-06-05T05:51:41.902Z,36.30
2018-06-05T05:54:17.402Z,38.77
2018-06-05T05:56:53.130Z,37.10
2018-06-05T05:59:28.878Z,34.33
2018-06-05T06:05:02.293Z,38.87
2018-06-05T06:07:37.583Z,36.77
2018-06-05T06:10:13.979Z,34.07
2018-06-05T06:12:49.467Z,37.17
2018-06-05T06:15:25.655Z,37.17
2018-06-05T06:18:00.968Z,33.10
2018-06-05T06:20:37.327Z,38.60
2018-06-05T06:23:12.886Z,32.87
2018-06-05T06:25:48.290Z,32.17
2018-06-05T06:28:23.272Z,36.53
2018-06-05T06:30:58.783Z,34.00
2018-06-05T06:33:34.286Z,38.50
2018-06-05T06:36:09.610Z,37.97
2018-06-05T06:38:44.931Z,32.00
2018-06-05T06:41:21.071Z,36.13
2018-06-05T06:43:56.850Z,37.40
2018-06-05T06:46:31.738Z,38.80
2018-06-05T06:49:07.254Z,36.50
2018-06-05T06:51:42.568Z,39.57
2018-06-05T06:54:18.721Z,37.73
2018-06-05T06:56:54.870Z,40.47
2018-06-05T06:59:31.130Z,40.47
2018-06-05T07:02:07.146Z,39.13
2018-06-05T07:04:42.275Z,35.23
2018-06-05T07:07:17.149Z,37.87
2018-06-05T07:09:52.686Z,38.40
2018-06-05T07:12:27.888Z,43.63
2018-06-05T07:15:03.326Z,39.17
2018-06-05T07:17:38.710Z,40.33
2018-06-05T07:20:14.158Z,42.30
2018-06-05T07:22:50.147Z,42.90
2018-06-05T07:25:24.915Z,44.27
2018-06-05T07:28:00.527Z,44.40
2018-06-05T07:30:36.874Z,44.83
2018-06-05T07:33:13.141Z,41.97
2018-06-05T07:35:53.014Z,44.63
2018-06-05T07:38:28.383Z,48.03
2018-06-05T07:41:04.043Z,42.37
2018-06-05T07:43:45.577Z,43.83
2018-06-05T07:46:22.775Z,48.50
2018-06-05T07:48:57.995Z,46.87
2018-06-05T07:51:32.970Z,48.40
2018-06-05T07:54:08.194Z,49.07
2018-06-05T07:56:44.032Z,46.97
2018-06-05T07:59:19.030Z,47.10
2018-06-05T08:01:54.243Z,47.13
2018-06-05T08:04:30.506Z,44.10
2018-06-05T08:07:06.863Z,44.00
2018-06-05T08:09:44.219Z,45.67
2018-06-05T08:12:19.710Z,50.53
2018-06-05T08:14:54.415Z,53.77
2018-06-05T08:17:29.583Z,46.03
2018-06-05T08:20:05.287Z,46.77
2018-06-05T08:22:57.466Z,48.20
2018-06-05T08:25:33.506Z,48.57
2018-06-05T08:28:08.803Z,44.97
2018-06-05T08:30:44.214Z,44.87
2018-06-05T08:33:20.164Z,44.97
2018-06-05T08:35:56.765Z,44.10
2018-06-05T08:38:32.331Z,45.20
2018-06-05T08:41:08.797Z,39.47
2018-06-05T08:43:44.434Z,39.80
2018-06-05T08:46:22.451Z,44.93
2018-06-05T08:48:58.682Z,44.43
2018-06-05T08:51:35.042Z,43.37
2018-06-05T08:54:11.517Z,50.90
2018-06-05T08:56:47.687Z,44.73
2018-06-05T08:59:24.026Z,40.57
2018-06-05T09:01:59.750Z,44.83
2018-06-05T09:04:36.854Z,48.77
2018-06-05T09:07:12.018Z,47.03
2018-06-05T09:09:47.580Z,49.60
2018-06-05T09:12:24.038Z,44.73
2018-06-05T09:14:58.885Z,42.93
2018-06-05T09:17:35.349Z,46.80
2018-06-05T09:20:11.499Z,51.53
2018-06-05T09:22:46.962Z,60.30
2018-06-05T09:25:23.614Z,57.33
2018-06-05T09:28:00.587Z,58.77
2018-06-05T09:30:36.728Z,50.47
2018-06-05T09:33:12.011Z,55.23
2018-06-05T09:35:47.815Z,57.77
2018-06-05T09:38:28.274Z,55.57
2018-06-05T09:41:04.093Z,55.93
2018-06-05T09:43:39.153Z,51.77
2018-06-05T09:46:14.911Z,47.80
2018-06-05T09:48:50.198Z,57.00
2018-06-05T09:51:25.922Z,51.53
2018-06-05T09:54:00.812Z,51.17
2018-06-05T09:56:35.815Z,49.60
2018-06-05T09:59:11.719Z,47.47
2018-06-05T10:01:46.918Z,49.87
2018-06-05T10:04:21.994Z,47.97
2018-06-05T10:06:57.184Z,54.70
2018-06-05T10:09:33.269Z,55.67
2018-06-05T10:12:08.747Z,58.23
2018-06-05T10:14:44.126Z,59.70
2018-06-05T10:17:20.962Z,62.17
2018-06-05T10:19:56.039Z,59.07
2018-06-05T10:22:32.514Z,57.80
2018-06-05T10:25:07.802Z,59.57
2018-06-05T10:27:42.533Z,59.20
2018-06-05T10:30:17.743Z,58.87
2018-06-05T10:32:53.163Z,54.57
2018-06-05T10:35:29.835Z,56.10
2018-06-05T10:38:05.494Z,53.77
2018-06-05T10:40:41.110Z,59.70
2018-06-05T10:43:16.953Z,55.27
2018-06-05T10:45:52.095Z,54.63
2018-06-05T10:48:28.379Z,56.00
2018-06-05T10:51:04.127Z,56.20
2018-06-05T10:53:40.374Z,56.90
2018-06-05T10:56:17.122Z,58.10
2018-06-05T10:58:52.056Z,56.03
2018-06-05T11:01:26.998Z,57.20
2018-06-05T11:04:03.094Z,56.10
2018-06-05T11:06:38.889Z,56.50
2018-06-05T11:09:14.153Z,52.93
2018-06-05T11:11:50.406Z,53.30
2018-06-05T11:14:26.547Z,53.77
2018-06-05T11:17:01.655Z,54.33
2018-06-05T11:19:38.618Z,53.57
2018-06-05T11:22:14.983Z,55.07
2018-06-05T11:24:49.850Z,57.60
2018-06-05T11:27:24.907Z,59.57
2018-06-05T11:30:01.445Z,58.20
2018-06-05T11:32:36.892Z,58.83
2018-06-05T11:35:12.000Z,58.97
2018-06-05T11:37:48.150Z,57.27
2018-06-05T11:40:23.987Z,56.33
2018-06-05T11:42:59.646Z,54.30
2018-06-05T11:45:34.790Z,57.87
2018-06-05T11:48:10.645Z,56.23
2018-06-05T11:50:46.396Z,53.77
2018-06-05T11:53:22.905Z,52.40
2018-06-05T11:55:58.715Z,53.07
2018-06-05T11:58:34.743Z,52.10
2018-06-05T12:01:10.475Z,54.70
2018-06-05T12:03:45.986Z,47.20
2018-06-05T12:06:22.270Z,51.37
2018-06-05T12:08:57.646Z,48.47
2018-06-05T12:11:33.139Z,51.00
2018-06-05T12:14:08.622Z,46.10
2018-06-05T12:16:44.547Z,49.13
2018-06-05T12:19:20.618Z,49.23
2018-06-05T12:21:57.127Z,50.83
2018-06-05T12:24:33.119Z,48.77
2018-06-05T12:27:10.751Z,51.27
2018-06-05T12:29:45.609Z,51.53
2018-06-05T12:32:21.842Z,53.60
2018-06-05T12:34:58.814Z,54.73
2018-06-05T12:37:34.534Z,50.30
2018-06-05T12:40:09.559Z,48.97
2018-06-05T12:42:45.502Z,50.37
2018-06-05T12:45:21.635Z,52.33
2018-06-05T12:47:57.423Z,49.37
2018-06-05T12:50:33.890Z,52.00
2018-06-05T12:53:09.738Z,55.90
2018-06-05T12:55:46.823Z,52.37
2018-06-05T12:58:23.718Z,51.13
2018-06-05T13:00:59.854Z,52.13
2018-06-05T13:03:35.854Z,49.83
2018-06-05T13:06:12.456Z,51.70
2018-06-05T13:08:48.758Z,52.80
2018-06-05T13:11:23.822Z,56.03
2018-06-05T13:13:58.799Z,56.23
2018-06-05T13:16:34.887Z,55.83
2018-06-05T13:19:09.975Z,59.07
2018-06-05T13:21:46.635Z,54.50
2018-06-05T13:24:21.952Z,60.10
2018-06-05T13:27:04.894Z,57.30
2018-06-05T13:29:40.023Z,57.60
2018-06-05T13:32:15.966Z,56.87
2018-06-05T13:34:51.294Z,58.03
2018-06-05T13:37:26.265Z,57.97
2018-06-05T13:40:01.323Z,55.17
2018-06-05T13:42:36.478Z,58.07
2018-06-05T13:45:12.735Z,51.43
2018-06-05T13:47:48.075Z,61.20
2018-06-05T13:50:24.097Z,59.20
2018-06-05T13:52:59.200Z,59.60
2018-06-05T13:55:36.686Z,58.63
2018-06-05T13:58:12.987Z,55.53
2018-06-05T14:00:47.693Z,52.03
2018-06-05T14:03:23.698Z,54.67
2018-06-05T14:06:00.766Z,53.73
2018-06-05T14:08:35.779Z,51.03
2018-06-05T14:11:11.774Z,52.03
2018-06-05T14:13:48.454Z,55.70
2018-06-05T14:16:24.503Z,53.10
2018-06-05T14:19:00.691Z,50.20
2018-06-05T14:21:35.877Z,49.63
2018-06-05T14:24:12.478Z,49.47
2018-06-05T14:26:47.675Z,50.63
2018-06-05T14:29:22.276Z,49.63
2018-06-05T14:31:58.027Z,52.73
2018-06-05T14:34:33.742Z,51.27
2018-06-05T14:37:09.438Z,51.60
2018-06-05T14:39:45.015Z,47.00
2018-06-05T14:42:20.731Z,44.97
2018-06-05T14:44:55.979Z,47.90
2018-06-05T14:47:30.969Z,46.33
2018-06-05T14:50:06.339Z,42.77
2018-06-05T14:52:42.135Z,46.17
2018-06-05T14:55:16.914Z,42.63
2018-06-05T14:57:52.934Z,45.10
2018-06-05T15:00:29.387Z,42.73
2018-06-05T15:03:04.322Z,40.73
2018-06-05T15:05:39.556Z,41.53
2018-06-05T15:08:14.683Z,42.60
2018-06-05T15:10:49.838Z,39.47
2018-06-05T15:13:25.864Z,39.40
2018-06-05T15:16:00.961Z,36.43
2018-06-05T15:18:36.501Z,34.10
2018-06-05T15:21:12.440Z,33.40
2018-06-05T15:23:47.430Z,34.30
2018-06-05T15:26:22.362Z,35.73
2018-06-05T15:28:57.855Z,32.80
2018-06-05T15:31:32.941Z,30.17
2018-06-05T15:34:08.262Z,29.20
2018-06-05T15:36:44.887Z,28.93
2018-06-05T15:39:20.390Z,28.43
2018-06-05T15:41:54.621Z,30.17
2018-06-05T15:44:31.021Z,27.93
2018-06-05T15:47:06.946Z,27.80
2018-06-05T15:49:41.935Z,28.67
2018-06-05T15:52:17.774Z,29.40
2018-06-05T15:54:53.203Z,29.80
2018-06-05T15:57:29.354Z,28.00
2018-06-05T16:00:05.620Z,26.67
2018-06-05T16:02:41.587Z,28.43
2018-06-05T16:05:16.864Z,27.53
2018-06-05T16:07:51.559Z,27.20
2018-06-05T16:10:28.407Z,26.43
2018-06-05T16:13:04.159Z,28.97
2018-06-05T16:15:38.875Z,27.27
2018-06-05T16:18:13.416Z,25.90
2018-06-05T16:20:48.134Z,25.60
2018-06-05T16:23:23.129Z,22.70
2018-06-05T16:25:58.549Z,23.60
2018-06-05T16:28:33.331Z,23.97
2018-06-05T16:31:08.815Z,25.23
2018-06-05T16:33:43.239Z,27.87
2018-06-05T16:36:18.554Z,27.70
2018-06-05T16:38:54.078Z,25.97
2018-06-05T16:41:31.255Z,24.87
2018-06-05T16:44:06.621Z,28.23
2018-06-05T16:46:42.674Z,26.40
2018-06-05T16:49:17.249Z,24.47
2018-06-05T16:51:53.254Z,25.47
2018-06-05T16:54:28.891Z,26.43
2018-06-05T16:57:04.743Z,26.97
2018-06-05T16:59:40.040Z,30.40
2018-06-05T17:02:14.951Z,30.80
2018-06-05T17:04:51.599Z,32.17
2018-06-05T17:07:28.359Z,35.30
2018-06-05T17:10:03.915Z,32.03
2018-06-05T17:12:40.863Z,33.73
2018-06-05T17:15:16.726Z,33.30
2018-06-05T17:17:52.223Z,28.57
2018-06-05T17:20:26.766Z,28.83
2018-06-05T17:23:02.722Z,32.23
2018-06-05T17:25:37.839Z,29.80
2018-06-05T17:28:13.462Z,30.63
2018-06-05T17:30:49.257Z,31.13
2018-06-05T17:33:24.301Z,31.50
2018-06-05T17:35:59.806Z,30.33
2018-06-05T17:38:35.918Z,31.93
2018-06-05T17:41:10.554Z,32.13
2018-06-05T17:43:45.269Z,38.30
2018-06-05T17:46:20.767Z,31.63
2018-06-05T17:48:55.923Z,30.73
2018-06-05T17:51:31.981Z,32.17
2018-06-05T17:54:07.258Z,32.83
2018-06-05T17:56:43.614Z,32.17
2018-06-05T17:59:18.870Z,28.47
2018-06-05T18:01:54.747Z,30.87
2018-06-05T18:04:29.392Z,32.13
2018-06-05T18:07:05.535Z,30.33
2018-06-05T18:09:41.521Z,29.90
2018-06-05T18:12:16.824Z,33.23
2018-06-05T18:14:52.786Z,33.83
2018-06-05T18:17:29.515Z,32.10
2018-06-05T18:20:04.247Z,32.13
2018-06-05T18:22:40.002Z,28.97
2018-06-05T18:25:16.870Z,33.97
2018-06-05T18:27:51.917Z,34.63
2018-06-05T18:30:27.762Z,30.63
2018-06-05T18:33:03.574Z,33.27
2018-06-05T18:35:39.450Z,35.03
2018-06-05T18:38:16.362Z,37.60
2018-06-05T18:40:57.846Z,36.63
2018-06-05T18:43:34.671Z,34.80
2018-06-05T18:46:10.695Z,34.20
2018-06-05T18:48:47.358Z,37.20
2018-06-05T18:51:22.814Z,37.63
2018-06-05T18:53:59.453Z,40.90
2018-06-05T18:56:34.790Z,37.30
2018-06-05T18:59:10.847Z,36.90
2018-06-05T19:01:47.465Z,34.47
2018-06-05T19:04:23.646Z,35.00
2018-06-05T19:06:59.658Z,37.27
2018-06-05T19:09:34.687Z,37.03
2018-06-05T19:12:10.716Z,36.80
2018-06-05T19:14:52.857Z,33.60
2018-06-05T19:17:27.889Z,34.40
2018-06-05T19:20:03.882Z,33.67
2018-06-05T19:22:38.321Z,34.30
2018-06-05T19:25:14.374Z,31.87
2018-06-05T19:27:48.654Z,33.47
2018-06-05T19:30:23.181Z,33.37
2018-06-05T19:32:59.550Z,35.53
2018-06-05T19:35:35.293Z,34.50
2018-06-05T19:38:11.187Z,34.97
2018-06-05T19:40:47.208Z,30.53
2018-06-05T19:43:22.588Z,30.43
2018-06-05T19:46:00.139Z,32.10
2018-06-05T19:48:36.705Z,30.37
2018-06-05T19:51:12.574Z,34.07
2018-06-05T19:53:48.727Z,30.57
2018-06-05T19:56:24.422Z,28.73
2018-06-05T19:58:59.170Z,31.23
2018-06-05T20:01:35.534Z,34.30
2018-06-05T20:04:11.898Z,29.67
2018-06-05T20:06:47.681Z,33.70
2018-06-05T20:09:22.191Z,32.23
2018-06-05T20:11:57.730Z,34.30
2018-06-05T20:14:34.326Z,31.57
2018-06-05T20:17:08.877Z,35.17
2018-06-05T20:19:44.096Z,34.97
2018-06-05T20:22:19.621Z,36.73
2018-06-05T20:24:55.551Z,32.70
2018-06-05T20:27:31.787Z,34.23
2018-06-05T20:30:06.742Z,41.00
2018-06-05T20:32:41.420Z,33.37
2018-06-05T20:35:17.865Z,34.10
2018-06-05T20:37:53.880Z,35.97
2018-06-05T20:40:29.199Z,36.50
2018-06-05T20:43:04.621Z,36.57
2018-06-05T20:45:40.901Z,35.13
2018-06-05T20:48:17.174Z,35.67
2018-06-05T20:50:52.769Z,33.50
2018-06-05T20:53:29.374Z,32.23
2018-06-05T20:56:05.655Z,36.73
2018-06-05T20:58:40.888Z,32.97
2018-06-05T21:01:17.607Z,31.17
2018-06-05T21:03:52.822Z,34.87
2018-06-05T21:06:27.704Z,39.00
2018-06-05T21:09:03.894Z,37.60
2018-06-05T21:11:40.038Z,43.33
2018-06-05T21:14:16.746Z,35.60
2018-06-05T21:16:51.990Z,42.23
2018-06-05T21:19:26.385Z,35.20
2018-06-05T21:22:02.969Z,40.57
2018-06-05T21:24:39.083Z,37.23
2018-06-05T21:27:15.255Z,35.87
2018-06-05T21:29:49.839Z,35.70
2018-06-05T21:32:25.961Z,36.57
2018-06-05T21:35:02.224Z,36.03
2018-06-05T21:37:37.746Z,37.63
2018-06-05T21:40:13.186Z,37.13
2018-06-05T21:42:53.118Z,41.30
2018-06-05T21:45:28.705Z,42.63
2018-06-05T21:48:03.963Z,44.37
2018-06-05T21:50:38.886Z,41.40
2018-06-05T21:53:14.159Z,38.10
2018-06-05T21:55:52.146Z,43.23
2018-06-05T21:58:27.614Z,35.70
2018-06-05T22:01:02.787Z,39.67
2018-06-05T22:03:38.902Z,47.27
2018-06-05T22:06:16.335Z,44.40
2018-06-05T22:08:53.615Z,41.67
2018-06-05T22:11:31.190Z,38.00
2018-06-05T22:14:07.370Z,42.13
2018-06-05T22:16:43.289Z,42.47
2018-06-05T22:19:13.765Z,45.77
2018-06-05T22:21:43.298Z,42.63
2018-06-05T22:24:13.651Z,40.80
2018-06-05T22:26:44.494Z,45.07
2018-06-05T22:29:15.471Z,45.57
2018-06-05T22:31:45.827Z,48.00
2018-06-05T22:34:16.470Z,47.00
2018-06-05T22:36:46.697Z,44.83
2018-06-05T22:39:17.574Z,41.40
2018-06-05T22:41:48.583Z,41.00
2018-06-05T22:44:18.541Z,47.03
2018-06-05T22:46:48.298Z,45.90
2018-06-05T22:49:18.308Z,49.83
2018-06-05T22:51:49.459Z,42.93
2018-06-05T22:54:20.634Z,47.97
2018-06-05T22:56:51.294Z,45.80
2018-06-05T22:59:22.289Z,43.30
2018-06-05T23:01:52.635Z,43.53
2018-06-05T23:04:23.306Z,44.00
2018-06-05T23:06:53.239Z,50.93
2018-06-05T23:09:23.227Z,44.37
2018-06-05T23:11:52.795Z,45.97
2018-06-05T23:14:21.914Z,45.90
2018-06-05T23:16:51.862Z,51.23
2018-06-05T23:19:21.795Z,44.23
2018-06-05T23:21:52.631Z,48.80
2018-06-05T23:24:22.840Z,47.43
2018-06-05T23:26:52.420Z,45.17
2018-06-05T23:29:22.606Z,53.60
2018-06-05T23:31:52.700Z,49.17
2018-06-05T23:34:23.259Z,46.40
2018-06-05T23:36:52.915Z,47.57
2018-06-05T23:39:22.768Z,45.97
2018-06-05T23:41:53.178Z,50.87
2018-06-05T23:44:22.081Z,50.60
2018-06-05T23:46:52.704Z,47.33
2018-06-05T23:49:22.597Z,48.73
2018-06-05T23:51:56.781Z,48.40
2018-06-05T23:54:27.405Z,54.43
2018-06-05T23:56:57.280Z,47.13
2018-06-05T23:59:27.709Z,49.53
